Terminal Aerodrome Forecast
Issued by NWS

Home | Current Version | Previous Version | Text Only | Print | Product List | Glossary On
Versions: 1 2 3 4 5 6 7 8 9 10 11 12 13 14 15 16 17 18 19
209
FTAK31 PAJN 262340
TAFAWG
TAF
PAWG 262340Z 2700/2724 05005KT 6SM -SHRA SCT020 OVC040
     FM270500 00000KT 6SM -SHRA BR BKN015 OVC025
      TEMPO 2705/2709 3SM BR OVC015
     FM272100 00000KT P6SM -SHRA SCT015 OVC035
      AMD NOT SKED 2706/2715=

USA.gov is the U.S. government's official web portal to all federal, state and local government web resources and services.